Terminal Aerodrome Forecast
Issued by NWS

Home | Current Version | Previous Version | Text Only | Print | Product List | Glossary On
Versions: 1 2 3 4 5 6 7 8 9 10 11 12 13 14 15 16 17 18 19
905
FTUS43 KMQT 222320
TAFCMX
TAF
KCMX 222320Z 2300/2324 05013G25KT 1SM -FZDZSN OVC008
     FM230100 05014G24KT 1 1/2SM -FZDZSN OVC008
     FM230600 03014G23KT 4SM -SN OVC008
     FM231200 01015G25KT 6SM -SHSN OVC003
     FM231300 01016G26KT 4SM -SHSN BLSN BKN008
     FM231500 01017G26KT 2SM -SHSN BLSN BKN010
     FM231700 36016G25KT P6SM BKN015
     FM232300 35012KT P6SM SCT060=

USA.gov is the U.S. government's official web portal to all federal, state and local government web resources and services.